createdAt,value
2023-02-01T00:02:53.864Z,1.63
2023-02-01T00:06:00.014Z,1.10
2023-02-01T00:09:03.480Z,1.20
2023-02-01T00:12:06.313Z,1.10
2023-02-01T00:15:09.699Z,1.43
2023-02-01T00:18:12.067Z,1.20
2023-02-01T00:21:17.720Z,1.00
2023-02-01T00:24:20.151Z,1.10
2023-02-01T00:27:22.747Z,1.40
2023-02-01T00:30:25.157Z,1.40
2023-02-01T00:33:28.777Z,1.70
2023-02-01T00:36:31.149Z,1.43
2023-02-01T00:39:33.402Z,2.10
2023-02-01T00:42:35.976Z,1.20
2023-02-01T00:45:38.093Z,1.70
2023-02-01T00:48:41.066Z,2.20
2023-02-01T00:51:43.080Z,1.70
2023-02-01T00:54:45.091Z,2.03
2023-02-01T00:57:47.467Z,1.53
2023-02-01T01:00:50.785Z,1.80
2023-02-01T01:03:56.670Z,1.73
2023-02-01T01:06:59.077Z,1.60
2023-02-01T01:10:01.944Z,1.60
2023-02-01T01:13:04.056Z,1.83
2023-02-01T01:16:08.369Z,1.53
2023-02-01T01:19:10.667Z,1.10
2023-02-01T01:22:12.674Z,1.47
2023-02-01T01:25:15.278Z,1.10
2023-02-01T01:28:18.568Z,1.20
2023-02-01T01:31:22.163Z,1.10
2023-02-01T01:34:24.636Z,1.60
2023-02-01T01:37:26.837Z,1.43
2023-02-01T01:40:30.219Z,1.60
2023-02-01T01:44:06.337Z,1.10
2023-02-01T01:47:09.775Z,1.20
2023-02-01T01:50:18.269Z,1.20
2023-02-01T01:53:26.214Z,1.50
2023-02-01T01:56:30.707Z,1.33
2023-02-01T01:59:36.973Z,1.27
2023-02-01T02:02:42.192Z,1.20
2023-02-01T02:05:45.249Z,1.20
2023-02-01T02:08:47.596Z,0.97
2023-02-01T02:11:49.741Z,1.00
2023-02-01T02:14:53.421Z,0.90
2023-02-01T02:18:17.382Z,0.80
2023-02-01T02:21:31.852Z,1.00
2023-02-01T02:25:07.602Z,0.80
2023-02-01T02:28:41.471Z,1.10
2023-02-01T02:32:14.857Z,0.80
2023-02-01T02:35:54.632Z,0.90
2023-02-01T02:39:24.459Z,1.27
2023-02-01T02:43:15.979Z,1.03
2023-02-01T02:46:52.925Z,1.20
2023-02-01T02:50:31.327Z,0.90
2023-02-01T02:54:03.762Z,1.13
2023-02-01T02:57:28.972Z,1.23
2023-02-01T03:00:54.340Z,1.27
2023-02-01T03:04:15.705Z,1.30
2023-02-01T03:07:49.008Z,1.30
2023-02-01T03:11:06.621Z,1.07
2023-02-01T03:14:09.908Z,1.30
2023-02-01T03:17:20.437Z,1.27
2023-02-01T03:20:25.186Z,1.63
2023-02-01T03:23:32.156Z,1.77
2023-02-01T03:26:40.014Z,1.60
2023-02-01T03:30:07.237Z,1.50
2023-02-01T03:33:23.015Z,1.77
2023-02-01T03:36:32.546Z,1.30
2023-02-01T03:39:59.464Z,1.97
2023-02-01T03:43:06.370Z,1.90
2023-02-01T03:46:13.813Z,2.10
2023-02-01T03:49:24.718Z,1.57
2023-02-01T03:52:33.673Z,1.90
2023-02-01T03:55:39.584Z,2.00
2023-02-01T03:58:41.758Z,2.37
2023-02-01T04:01:44.094Z,2.20
2023-02-01T04:04:46.773Z,1.90
2023-02-01T04:07:51.781Z,2.23
2023-02-01T04:10:53.833Z,2.20
2023-02-01T04:13:56.222Z,2.43
2023-02-01T04:16:58.572Z,2.47
2023-02-01T04:20:00.810Z,2.47
2023-02-01T04:23:03.924Z,1.90
2023-02-01T04:26:06.979Z,2.30
2023-02-01T04:29:11.379Z,2.17
2023-02-01T04:32:13.485Z,2.00
2023-02-01T04:35:15.531Z,1.90
2023-02-01T04:38:17.947Z,2.03
2023-02-01T04:41:22.197Z,1.97
2023-02-01T04:44:24.887Z,2.10
2023-02-01T04:47:28.450Z,2.07
2023-02-01T04:50:31.066Z,1.90
2023-02-01T04:53:33.817Z,1.63
2023-02-01T04:56:36.233Z,1.80
2023-02-01T04:59:39.034Z,1.80
2023-02-01T05:02:41.444Z,1.57
2023-02-01T05:05:43.499Z,2.07
2023-02-01T05:08:46.062Z,2.20
2023-02-01T05:12:06.743Z,2.30
2023-02-01T05:15:09.100Z,2.07
2023-02-01T05:18:12.041Z,2.43
2023-02-01T05:21:14.275Z,1.90
2023-02-01T05:24:21.018Z,1.57
2023-02-01T05:27:23.808Z,2.07
2023-02-01T05:30:26.033Z,2.43
2023-02-01T05:33:28.088Z,2.00
2023-02-01T05:36:30.182Z,2.07
2023-02-01T05:39:32.403Z,2.00
2023-02-01T05:42:34.852Z,1.90
2023-02-01T05:45:36.930Z,1.60
2023-02-01T05:48:39.473Z,1.70
2023-02-01T05:51:41.550Z,2.00
2023-02-01T05:54:43.595Z,2.07
2023-02-01T05:57:45.849Z,1.80
2023-02-01T06:00:47.895Z,1.83
2023-02-01T06:03:50.124Z,2.33
2023-02-01T06:06:52.227Z,2.37
2023-02-01T06:09:54.246Z,2.60
2023-02-01T06:12:56.339Z,2.50
2023-02-01T06:15:58.434Z,2.37
2023-02-01T06:19:01.558Z,2.60
2023-02-01T06:22:07.957Z,2.27
2023-02-01T06:25:11.900Z,2.27
2023-02-01T06:28:14.324Z,2.40
2023-02-01T06:31:16.553Z,2.63
2023-02-01T06:34:22.040Z,2.07
2023-02-01T06:37:26.301Z,1.80
2023-02-01T06:40:28.331Z,2.10
2023-02-01T06:43:31.185Z,2.20
2023-02-01T06:46:33.514Z,2.13
2023-02-01T06:49:35.515Z,1.83
2023-02-01T06:52:37.850Z,2.23
2023-02-01T06:55:39.941Z,2.30
2023-02-01T06:58:42.018Z,2.33
2023-02-01T07:01:44.332Z,2.30
2023-02-01T07:04:46.438Z,2.60
2023-02-01T07:07:48.706Z,2.17
2023-02-01T07:10:50.790Z,2.00
2023-02-01T07:13:53.651Z,2.10
2023-02-01T07:16:55.706Z,1.93
2023-02-01T07:19:59.851Z,1.80
2023-02-01T07:23:02.097Z,1.90
2023-02-01T07:26:06.691Z,1.60
2023-02-01T07:29:08.901Z,1.60
2023-02-01T07:32:11.365Z,1.50
2023-02-01T07:35:15.252Z,2.20
2023-02-01T07:38:18.533Z,1.70
2023-02-01T07:41:20.524Z,1.90
2023-02-01T07:44:24.385Z,2.17
2023-02-01T07:47:26.657Z,2.00
2023-02-01T07:50:28.827Z,2.27
2023-02-01T07:53:32.660Z,1.83
2023-02-01T07:56:34.883Z,1.70
2023-02-01T07:59:36.982Z,1.67
2023-02-01T08:02:39.021Z,2.00
2023-02-01T08:05:41.168Z,1.93
2023-02-01T08:08:46.286Z,1.90
2023-02-01T08:11:49.040Z,1.90
2023-02-01T08:14:51.155Z,1.70
2023-02-01T08:17:53.327Z,1.87
2023-02-01T08:20:55.621Z,1.70
2023-02-01T08:23:58.879Z,1.77
2023-02-01T08:27:03.542Z,2.07
2023-02-01T08:30:08.467Z,2.07
2023-02-01T08:33:11.257Z,2.17
2023-02-01T08:36:13.663Z,2.23
2023-02-01T08:39:16.140Z,1.80
2023-02-01T08:42:37.828Z,1.97
2023-02-01T08:45:41.278Z,2.00
2023-02-01T08:48:43.476Z,2.03
2023-02-01T08:51:45.502Z,1.97
2023-02-01T08:54:47.656Z,2.10
2023-02-01T08:57:49.997Z,2.00
2023-02-01T09:00:52.229Z,2.10
2023-02-01T09:03:54.285Z,1.97
2023-02-01T09:06:59.060Z,2.30
2023-02-01T09:10:02.192Z,1.90
2023-02-01T09:13:04.453Z,1.87
2023-02-01T09:16:06.690Z,1.83
2023-02-01T09:19:24.762Z,1.70
2023-02-01T09:22:27.354Z,2.40
2023-02-01T09:25:29.540Z,1.73
2023-02-01T09:28:32.251Z,1.90
2023-02-01T09:31:34.578Z,1.73
2023-02-01T09:34:36.835Z,1.43
2023-02-01T09:37:39.371Z,1.93
2023-02-01T09:40:47.241Z,1.83
2023-02-01T09:43:52.529Z,1.53
2023-02-01T09:47:00.769Z,1.60
2023-02-01T09:50:15.736Z,1.40
2023-02-01T09:53:38.407Z,1.50
2023-02-01T09:56:42.832Z,1.47
2023-02-01T09:59:50.723Z,1.50
2023-02-01T10:02:56.489Z,1.60
2023-02-01T10:06:29.441Z,1.10
2023-02-01T10:09:41.308Z,1.27
2023-02-01T10:12:52.948Z,1.50
2023-02-01T10:16:16.550Z,1.40
2023-02-01T10:19:40.615Z,1.40
2023-02-01T10:23:15.992Z,1.50
2023-02-01T10:26:24.203Z,1.43
2023-02-01T10:29:32.255Z,1.10
2023-02-01T10:32:36.034Z,1.17
2023-02-01T10:35:39.874Z,1.30
2023-02-01T10:38:42.067Z,1.43
2023-02-01T10:41:44.282Z,1.30
2023-02-01T10:44:49.100Z,1.00
2023-02-01T10:47:53.541Z,1.23
2023-02-01T10:51:07.202Z,1.57
2023-02-01T10:54:21.742Z,1.83
2023-02-01T10:57:29.483Z,1.30
2023-02-01T11:00:44.461Z,1.47
2023-02-01T11:03:53.829Z,1.30
2023-02-01T11:07:17.857Z,1.37
2023-02-01T11:10:41.635Z,1.13
2023-02-01T11:13:44.185Z,1.23
2023-02-01T11:16:53.626Z,1.37
2023-02-01T11:20:04.601Z,1.00
2023-02-01T11:23:12.903Z,1.40
2023-02-01T11:26:20.963Z,1.40
2023-02-01T11:29:30.905Z,1.40
2023-02-01T11:32:33.134Z,1.50
2023-02-01T11:35:41.156Z,1.20
2023-02-01T11:38:53.290Z,1.37
2023-02-01T11:42:13.962Z,1.80
2023-02-01T11:45:31.065Z,1.30
2023-02-01T11:48:35.064Z,1.27
2023-02-01T11:51:37.230Z,1.70
2023-02-01T11:55:08.467Z,1.40
2023-02-01T11:58:11.046Z,1.50
2023-02-01T12:01:48.515Z,1.57
2023-02-01T12:05:12.259Z,1.10
2023-02-01T12:08:36.177Z,1.17
2023-02-01T12:12:00.076Z,1.47
2023-02-01T12:15:30.413Z,1.20
2023-02-01T12:18:49.647Z,1.10
2023-02-01T12:22:03.807Z,1.27
2023-02-01T12:25:40.959Z,1.20
2023-02-01T12:29:11.069Z,1.00
2023-02-01T12:32:22.127Z,1.20
2023-02-01T12:35:56.350Z,1.17
2023-02-01T12:39:12.704Z,0.90
2023-02-01T12:42:30.476Z,1.23
2023-02-01T12:45:43.145Z,1.20
2023-02-01T12:49:00.552Z,1.10
2023-02-01T12:52:09.218Z,1.00
2023-02-01T12:55:26.168Z,1.00
2023-02-01T12:58:53.731Z,1.23
2023-02-01T13:02:02.770Z,1.27
2023-02-01T13:05:14.312Z,1.37
2023-02-01T13:08:23.899Z,1.00
2023-02-01T13:11:40.809Z,1.20
2023-02-01T13:14:49.090Z,0.70
2023-02-01T13:17:54.845Z,1.00
2023-02-01T13:20:59.932Z,0.90
2023-02-01T13:24:03.642Z,1.00
2023-02-01T13:27:06.691Z,0.90
2023-02-01T13:30:21.240Z,1.00
2023-02-01T13:34:04.380Z,1.03
2023-02-01T13:37:16.004Z,0.80
2023-02-01T13:40:43.708Z,0.80
2023-02-01T13:43:51.892Z,1.10
2023-02-01T13:47:03.682Z,0.83
2023-02-01T13:50:35.301Z,0.70
2023-02-01T13:53:39.056Z,1.10
2023-02-01T13:56:43.561Z,1.07
2023-02-01T13:59:45.560Z,0.80
2023-02-01T14:02:50.772Z,0.77
2023-02-01T14:05:52.824Z,0.60
2023-02-01T14:09:25.821Z,0.73
2023-02-01T14:12:50.495Z,0.60
2023-02-01T14:16:04.914Z,0.30
2023-02-01T14:19:30.639Z,0.27
2023-02-01T14:22:35.816Z,0.30
2023-02-01T14:25:39.053Z,0.30
2023-02-01T14:28:55.532Z,0.23
2023-02-01T14:32:21.027Z,0.33
2023-02-01T14:35:27.282Z,0.37
2023-02-01T14:38:32.575Z,0.50
2023-02-01T14:41:36.090Z,0.57
2023-02-01T14:44:38.827Z,0.50
2023-02-01T14:47:40.906Z,0.50
2023-02-01T14:50:46.068Z,0.83
2023-02-01T14:53:48.951Z,0.80
2023-02-01T14:56:52.449Z,0.90
2023-02-01T15:00:29.509Z,0.90
2023-02-01T15:03:38.316Z,1.00
2023-02-01T15:06:49.987Z,1.17
2023-02-01T15:09:53.700Z,1.23
2023-02-01T15:12:55.877Z,1.00
2023-02-01T15:16:13.334Z,1.33
2023-02-01T15:19:15.774Z,1.47
2023-02-01T15:22:20.407Z,1.50
2023-02-01T15:25:26.855Z,0.80
2023-02-01T15:28:29.179Z,1.40
2023-02-01T15:31:44.315Z,0.90
2023-02-01T15:34:49.242Z,1.43
2023-02-01T15:37:52.938Z,1.00
2023-02-01T15:41:11.480Z,1.10
2023-02-01T15:44:44.160Z,1.10
2023-02-01T15:47:49.891Z,1.00
2023-02-01T15:50:53.568Z,1.00
2023-02-01T15:54:09.289Z,1.07
2023-02-01T15:57:11.998Z,1.20
2023-02-01T16:00:41.254Z,1.27
2023-02-01T16:03:49.674Z,1.10
2023-02-01T16:07:02.202Z,1.20
2023-02-01T16:10:28.124Z,1.10
2023-02-01T16:13:30.127Z,1.37
2023-02-01T16:16:32.520Z,1.90
2023-02-01T16:19:34.925Z,1.23
2023-02-01T16:22:37.101Z,1.30
2023-02-01T16:25:40.371Z,1.10
2023-02-01T16:28:42.975Z,1.27
2023-02-01T16:31:46.208Z,1.07
2023-02-01T16:34:49.320Z,1.20
2023-02-01T16:37:52.083Z,1.30
2023-02-01T16:40:54.742Z,1.87
2023-02-01T16:43:58.305Z,1.70
2023-02-01T16:47:00.503Z,1.63
2023-02-01T16:50:08.379Z,1.87
2023-02-01T16:53:18.424Z,1.93
2023-02-01T16:56:30.975Z,2.20
2023-02-01T16:59:33.636Z,1.90
2023-02-01T17:02:36.266Z,1.90
2023-02-01T17:05:38.556Z,2.20
2023-02-01T17:08:45.753Z,1.73
2023-02-01T17:11:48.046Z,2.20
2023-02-01T17:14:51.704Z,1.93
2023-02-01T17:18:01.226Z,1.97
2023-02-01T17:21:06.027Z,2.13
2023-02-01T17:24:10.900Z,2.17
2023-02-01T17:27:14.438Z,2.47
2023-02-01T17:30:17.217Z,1.80
2023-02-01T17:33:35.762Z,1.57
2023-02-01T17:36:45.424Z,1.40
2023-02-01T17:39:58.649Z,1.77
2023-02-01T17:43:01.440Z,2.20
2023-02-01T17:46:13.656Z,1.70
2023-02-01T17:49:16.806Z,1.70
2023-02-01T17:52:22.464Z,1.70
2023-02-01T17:55:27.315Z,1.40
2023-02-01T17:58:33.871Z,1.70
2023-02-01T18:01:36.948Z,1.90
2023-02-01T18:04:39.719Z,1.60
2023-02-01T18:07:42.620Z,1.97
2023-02-01T18:10:45.558Z,1.77
2023-02-01T18:13:54.247Z,1.80
2023-02-01T18:16:57.844Z,2.00
2023-02-01T18:20:01.323Z,1.97
2023-02-01T18:23:07.724Z,2.07
2023-02-01T18:26:15.205Z,1.83
2023-02-01T18:29:18.778Z,1.70
2023-02-01T18:32:22.567Z,1.80
2023-02-01T18:35:29.548Z,2.07
2023-02-01T18:38:34.482Z,2.60
2023-02-01T18:41:37.779Z,2.07
2023-02-01T18:44:41.119Z,1.83
2023-02-01T18:47:44.766Z,2.37
2023-02-01T18:50:48.432Z,1.57
2023-02-01T18:53:52.536Z,2.07
2023-02-01T18:56:56.994Z,1.53
2023-02-01T19:00:00.196Z,1.30
2023-02-01T19:03:03.462Z,2.37
2023-02-01T19:06:07.470Z,1.70
2023-02-01T19:09:10.602Z,1.73
2023-02-01T19:12:13.744Z,2.20
2023-02-01T19:15:18.999Z,2.00
2023-02-01T19:18:22.209Z,1.47
2023-02-01T19:21:31.339Z,1.80
2023-02-01T19:24:34.980Z,2.33
2023-02-01T19:27:38.372Z,1.50
2023-02-01T19:30:41.611Z,2.00
2023-02-01T19:33:44.786Z,2.40
2023-02-01T19:36:48.941Z,2.03
2023-02-01T19:39:52.641Z,2.37
2023-02-01T19:42:59.756Z,1.57
2023-02-01T19:46:03.383Z,2.03
2023-02-01T19:49:08.552Z,1.83
2023-02-01T19:52:11.596Z,2.07
2023-02-01T19:55:15.174Z,1.93
2023-02-01T19:58:18.517Z,1.90
2023-02-01T20:01:20.699Z,1.67
2023-02-01T20:04:24.391Z,2.00
2023-02-01T20:07:27.084Z,1.40
2023-02-01T20:10:31.862Z,2.17
2023-02-01T20:13:36.470Z,1.53
2023-02-01T20:16:40.936Z,2.00
2023-02-01T20:19:45.553Z,1.80
2023-02-01T20:22:48.111Z,1.30
2023-02-01T20:25:51.784Z,1.57
2023-02-01T20:28:56.715Z,1.50
2023-02-01T20:32:00.552Z,1.60
2023-02-01T20:35:04.240Z,1.40
2023-02-01T20:38:08.512Z,1.40
2023-02-01T20:41:11.827Z,1.20
2023-02-01T20:44:14.846Z,1.87
2023-02-01T20:47:17.958Z,1.63
2023-02-01T20:50:21.882Z,1.60
2023-02-01T20:53:26.814Z,1.27
2023-02-01T20:56:30.014Z,1.50
2023-02-01T20:59:33.898Z,1.90
2023-02-01T21:02:37.676Z,1.60
2023-02-01T21:05:41.726Z,1.50
2023-02-01T21:08:44.503Z,1.47
2023-02-01T21:11:46.862Z,1.30
2023-02-01T21:14:50.236Z,1.43
2023-02-01T21:17:53.159Z,1.30
2023-02-01T21:20:58.749Z,1.47
2023-02-01T21:24:02.597Z,1.20
2023-02-01T21:27:04.870Z,1.40
2023-02-01T21:30:08.395Z,1.37
2023-02-01T21:33:10.651Z,1.67
2023-02-01T21:36:23.369Z,1.60
2023-02-01T21:39:27.710Z,1.40
2023-02-01T21:42:31.250Z,1.43
2023-02-01T21:45:33.671Z,1.63
2023-02-01T21:49:04.050Z,1.30
2023-02-01T21:51:59.012Z,1.40
2023-02-01T21:55:01.378Z,1.10
2023-02-01T21:58:03.555Z,1.30
2023-02-01T22:01:06.561Z,1.43
2023-02-01T22:04:10.438Z,1.67
2023-02-01T22:07:12.813Z,1.43
2023-02-01T22:10:14.794Z,1.57
2023-02-01T22:13:16.849Z,1.57
2023-02-01T22:16:21.652Z,1.63
2023-02-01T22:19:23.764Z,1.37
2023-02-01T22:22:25.905Z,1.67
2023-02-01T22:25:28.956Z,2.07
2023-02-01T22:28:33.769Z,1.70
2023-02-01T22:31:36.574Z,1.53
2023-02-01T22:34:39.374Z,1.63
2023-02-01T22:37:41.647Z,1.93
2023-02-01T22:40:44.402Z,1.53
2023-02-01T22:43:47.612Z,1.93
2023-02-01T22:46:50.248Z,1.80
2023-02-01T22:49:52.390Z,1.77
2023-02-01T22:52:54.568Z,1.50
2023-02-01T22:56:08.062Z,1.47
2023-02-01T22:59:12.810Z,1.67
2023-02-01T23:02:15.046Z,1.40
2023-02-01T23:05:17.260Z,1.40
2023-02-01T23:08:19.315Z,1.20
2023-02-01T23:11:22.639Z,1.50
2023-02-01T23:14:24.842Z,1.43
2023-02-01T23:17:26.908Z,1.67
2023-02-01T23:20:29.013Z,1.50
2023-02-01T23:23:30.944Z,1.60
2023-02-01T23:26:34.039Z,1.50
2023-02-01T23:29:36.286Z,1.70
2023-02-01T23:32:38.453Z,1.93
2023-02-01T23:35:40.650Z,1.70
2023-02-01T23:38:46.050Z,1.87
2023-02-01T23:41:48.067Z,1.50
2023-02-01T23:44:50.018Z,1.90
2023-02-01T23:47:52.025Z,1.77
2023-02-01T23:50:54.595Z,1.70
2023-02-01T23:53:57.428Z,1.17
2023-02-01T23:56:59.656Z,1.70
